64PA weather

J C Blair Memorial Hospital Heliport
Huntingdon, Pennsylvania, United States

Public forecast

Using degrees Fahrenheit for public forecast. Weather courtesy of forecast.io.

Closest aviation weather report (METAR) to J C Blair Memorial Hospital Heliport

Closest report is Altoona Blair County Airport, 18.5 nm (34.3 km) SW. Retrieved 2019/12/15 03:53 UTC (54 minutes ago):

KAOO 150353Z AUTO 28013G21KT 10SM OVC014 03/M01 A2958 RMK AO2 SLP028 T00281006

Closest aviation forecast (TAF) to J C Blair Memorial Hospital Heliport

Closest forecast is Altoona Blair County Airport, 18.5 nm (34.3 km) SW. Retrieved 2019-12-15 00:48 UTC (4 hours ago):

TAF KAOO 142347Z 1500/1524 29013G19KT P6SM BKN019 OVC024 WS020/30046KT FM150600 27016G23KT 4SM BR OVC025 WS020/28040KT FM151100 28018G26KT P6SM OVC050 FM151800 28016G22KT P6SM OVC250